sensor_id;sensor_type;location;lat;lon;timestamp;P1;durP1;ratioP1;P2;durP2;ratioP2
16824;SDS011;8529;48.108;-1.706;2022-12-18T00:01:04;30.23;;;15.63;;
16824;SDS011;8529;48.108;-1.706;2022-12-18T00:03:32;31.20;;;13.73;;
16824;SDS011;8529;48.108;-1.706;2022-12-18T00:05:59;31.33;;;14.00;;
16824;SDS011;8529;48.108;-1.706;2022-12-18T00:08:26;27.23;;;13.93;;
16824;SDS011;8529;48.108;-1.706;2022-12-18T00:10:54;29.63;;;13.83;;
16824;SDS011;8529;48.108;-1.706;2022-12-18T00:13:21;26.27;;;13.00;;
16824;SDS011;8529;48.108;-1.706;2022-12-18T00:15:49;25.10;;;12.80;;
16824;SDS011;8529;48.108;-1.706;2022-12-18T00:18:16;23.83;;;12.37;;
16824;SDS011;8529;48.108;-1.706;2022-12-18T00:20:43;23.23;;;12.87;;
16824;SDS011;8529;48.108;-1.706;2022-12-18T00:23:10;28.53;;;13.47;;
16824;SDS011;8529;48.108;-1.706;2022-12-18T00:25:37;25.93;;;13.57;;
16824;SDS011;8529;48.108;-1.706;2022-12-18T00:28:04;27.53;;;13.53;;
16824;SDS011;8529;48.108;-1.706;2022-12-18T00:30:31;26.23;;;13.57;;
16824;SDS011;8529;48.108;-1.706;2022-12-18T00:33:00;26.70;;;13.27;;
16824;SDS011;8529;48.108;-1.706;2022-12-18T00:35:27;33.70;;;14.57;;
16824;SDS011;8529;48.108;-1.706;2022-12-18T00:37:54;28.53;;;13.13;;
16824;SDS011;8529;48.108;-1.706;2022-12-18T00:40:21;29.70;;;13.57;;
16824;SDS011;8529;48.108;-1.706;2022-12-18T00:42:48;27.23;;;12.53;;
16824;SDS011;8529;48.108;-1.706;2022-12-18T00:45:23;27.83;;;13.63;;
16824;SDS011;8529;48.108;-1.706;2022-12-18T00:47:51;30.63;;;14.47;;
16824;SDS011;8529;48.108;-1.706;2022-12-18T00:50:20;30.13;;;12.70;;
16824;SDS011;8529;48.108;-1.706;2022-12-18T00:52:47;29.77;;;13.93;;
16824;SDS011;8529;48.108;-1.706;2022-12-18T00:55:15;26.40;;;12.83;;
16824;SDS011;8529;48.108;-1.706;2022-12-18T00:57:42;27.47;;;12.53;;
16824;SDS011;8529;48.108;-1.706;2022-12-18T01:00:11;32.07;;;14.07;;
16824;SDS011;8529;48.108;-1.706;2022-12-18T01:02:40;27.07;;;13.33;;
16824;SDS011;8529;48.108;-1.706;2022-12-18T01:05:07;28.87;;;13.33;;
16824;SDS011;8529;48.108;-1.706;2022-12-18T01:07:37;29.77;;;14.10;;
16824;SDS011;8529;48.108;-1.706;2022-12-18T01:10:04;29.87;;;14.10;;
16824;SDS011;8529;48.108;-1.706;2022-12-18T01:12:33;28.80;;;13.30;;
16824;SDS011;8529;48.108;-1.706;2022-12-18T01:15:00;29.33;;;13.83;;
16824;SDS011;8529;48.108;-1.706;2022-12-18T01:17:27;24.73;;;13.30;;
16824;SDS011;8529;48.108;-1.706;2022-12-18T01:19:54;27.33;;;12.43;;
16824;SDS011;8529;48.108;-1.706;2022-12-18T01:22:21;29.33;;;13.53;;
16824;SDS011;8529;48.108;-1.706;2022-12-18T01:24:49;26.27;;;12.97;;
16824;SDS011;8529;48.108;-1.706;2022-12-18T01:27:16;31.50;;;14.33;;
16824;SDS011;8529;48.108;-1.706;2022-12-18T01:29:43;32.97;;;13.37;;
16824;SDS011;8529;48.108;-1.706;2022-12-18T01:32:10;26.57;;;13.60;;
16824;SDS011;8529;48.108;-1.706;2022-12-18T01:34:37;29.07;;;14.27;;
16824;SDS011;8529;48.108;-1.706;2022-12-18T01:37:04;30.67;;;13.10;;
16824;SDS011;8529;48.108;-1.706;2022-12-18T01:39:32;27.63;;;13.17;;
16824;SDS011;8529;48.108;-1.706;2022-12-18T01:42:01;25.40;;;13.27;;
16824;SDS011;8529;48.108;-1.706;2022-12-18T01:44:53;29.77;;;13.63;;
16824;SDS011;8529;48.108;-1.706;2022-12-18T01:47:23;29.43;;;13.53;;
16824;SDS011;8529;48.108;-1.706;2022-12-18T01:49:53;28.87;;;13.07;;
16824;SDS011;8529;48.108;-1.706;2022-12-18T01:52:22;26.37;;;13.23;;
16824;SDS011;8529;48.108;-1.706;2022-12-18T01:54:52;29.90;;;13.90;;
16824;SDS011;8529;48.108;-1.706;2022-12-18T01:57:21;28.60;;;13.33;;
16824;SDS011;8529;48.108;-1.706;2022-12-18T01:59:51;26.97;;;13.47;;
16824;SDS011;8529;48.108;-1.706;2022-12-18T02:02:20;28.93;;;13.17;;
16824;SDS011;8529;48.108;-1.706;2022-12-18T02:04:48;31.17;;;13.73;;
16824;SDS011;8529;48.108;-1.706;2022-12-18T02:07:17;25.47;;;13.67;;
16824;SDS011;8529;48.108;-1.706;2022-12-18T02:09:50;30.30;;;14.60;;
16824;SDS011;8529;48.108;-1.706;2022-12-18T02:12:25;30.90;;;14.87;;
16824;SDS011;8529;48.108;-1.706;2022-12-18T02:14:59;25.80;;;12.80;;
16824;SDS011;8529;48.108;-1.706;2022-12-18T02:17:29;29.10;;;14.07;;
16824;SDS011;8529;48.108;-1.706;2022-12-18T02:20:04;29.90;;;14.43;;
16824;SDS011;8529;48.108;-1.706;2022-12-18T02:22:40;28.60;;;14.30;;
16824;SDS011;8529;48.108;-1.706;2022-12-18T02:25:25;29.07;;;13.17;;
16824;SDS011;8529;48.108;-1.706;2022-12-18T02:28:05;25.50;;;13.37;;
16824;SDS011;8529;48.108;-1.706;2022-12-18T02:30:35;31.10;;;13.57;;
16824;SDS011;8529;48.108;-1.706;2022-12-18T02:33:06;26.57;;;13.83;;
16824;SDS011;8529;48.108;-1.706;2022-12-18T02:35:35;30.60;;;13.67;;
16824;SDS011;8529;48.108;-1.706;2022-12-18T02:38:04;31.40;;;13.00;;
16824;SDS011;8529;48.108;-1.706;2022-12-18T02:40:32;27.63;;;13.23;;
16824;SDS011;8529;48.108;-1.706;2022-12-18T02:43:08;30.60;;;14.07;;
16824;SDS011;8529;48.108;-1.706;2022-12-18T02:45:35;26.77;;;13.83;;
16824;SDS011;8529;48.108;-1.706;2022-12-18T02:48:03;29.10;;;13.87;;
16824;SDS011;8529;48.108;-1.706;2022-12-18T02:50:31;27.60;;;13.07;;
16824;SDS011;8529;48.108;-1.706;2022-12-18T02:53:04;27.17;;;13.57;;
16824;SDS011;8529;48.108;-1.706;2022-12-18T02:55:41;28.00;;;13.17;;
16824;SDS011;8529;48.108;-1.706;2022-12-18T02:58:17;26.83;;;13.27;;
16824;SDS011;8529;48.108;-1.706;2022-12-18T03:00:51;27.47;;;13.13;;
16824;SDS011;8529;48.108;-1.706;2022-12-18T03:03:26;30.30;;;13.00;;
16824;SDS011;8529;48.108;-1.706;2022-12-18T03:06:00;27.57;;;13.80;;
16824;SDS011;8529;48.108;-1.706;2022-12-18T03:08:32;29.83;;;13.83;;
16824;SDS011;8529;48.108;-1.706;2022-12-18T03:11:04;26.13;;;13.30;;
16824;SDS011;8529;48.108;-1.706;2022-12-18T03:13:36;26.33;;;13.00;;
16824;SDS011;8529;48.108;-1.706;2022-12-18T03:16:07;28.63;;;12.70;;
16824;SDS011;8529;48.108;-1.706;2022-12-18T03:18:37;29.53;;;12.93;;
16824;SDS011;8529;48.108;-1.706;2022-12-18T03:21:08;28.80;;;13.37;;
16824;SDS011;8529;48.108;-1.706;2022-12-18T03:23:39;29.53;;;13.63;;
16824;SDS011;8529;48.108;-1.706;2022-12-18T03:26:11;28.00;;;13.10;;
16824;SDS011;8529;48.108;-1.706;2022-12-18T03:28:43;29.17;;;14.13;;
16824;SDS011;8529;48.108;-1.706;2022-12-18T03:31:13;27.97;;;13.13;;
16824;SDS011;8529;48.108;-1.706;2022-12-18T03:33:41;23.07;;;12.73;;
16824;SDS011;8529;48.108;-1.706;2022-12-18T03:36:12;26.93;;;13.97;;
16824;SDS011;8529;48.108;-1.706;2022-12-18T03:38:39;30.23;;;13.27;;
16824;SDS011;8529;48.108;-1.706;2022-12-18T03:41:08;27.93;;;12.67;;
16824;SDS011;8529;48.108;-1.706;2022-12-18T03:43:43;26.70;;;13.23;;
16824;SDS011;8529;48.108;-1.706;2022-12-18T03:46:15;25.73;;;13.10;;
16824;SDS011;8529;48.108;-1.706;2022-12-18T03:48:51;29.90;;;12.87;;
16824;SDS011;8529;48.108;-1.706;2022-12-18T03:51:26;26.93;;;13.07;;
16824;SDS011;8529;48.108;-1.706;2022-12-18T03:53:58;25.23;;;11.60;;
16824;SDS011;8529;48.108;-1.706;2022-12-18T03:56:29;27.60;;;13.53;;
16824;SDS011;8529;48.108;-1.706;2022-12-18T03:59:01;25.93;;;12.53;;
16824;SDS011;8529;48.108;-1.706;2022-12-18T04:01:31;27.07;;;13.37;;
16824;SDS011;8529;48.108;-1.706;2022-12-18T04:04:02;26.97;;;13.60;;
16824;SDS011;8529;48.108;-1.706;2022-12-18T04:06:32;29.97;;;14.20;;
16824;SDS011;8529;48.108;-1.706;2022-12-18T04:09:01;29.60;;;12.77;;
16824;SDS011;8529;48.108;-1.706;2022-12-18T04:11:29;23.97;;;12.30;;
16824;SDS011;8529;48.108;-1.706;2022-12-18T04:13:56;28.27;;;13.47;;
16824;SDS011;8529;48.108;-1.706;2022-12-18T04:16:25;25.13;;;12.67;;
16824;SDS011;8529;48.108;-1.706;2022-12-18T04:18:52;25.90;;;12.33;;
16824;SDS011;8529;48.108;-1.706;2022-12-18T04:21:20;25.57;;;12.80;;
16824;SDS011;8529;48.108;-1.706;2022-12-18T04:23:47;27.53;;;14.50;;
16824;SDS011;8529;48.108;-1.706;2022-12-18T04:26:14;28.47;;;14.33;;
16824;SDS011;8529;48.108;-1.706;2022-12-18T04:28:42;27.37;;;12.77;;
16824;SDS011;8529;48.108;-1.706;2022-12-18T04:31:09;28.17;;;14.17;;
16824;SDS011;8529;48.108;-1.706;2022-12-18T04:33:37;30.53;;;13.47;;
16824;SDS011;8529;48.108;-1.706;2022-12-18T04:36:04;28.33;;;13.00;;
16824;SDS011;8529;48.108;-1.706;2022-12-18T04:38:32;24.63;;;12.50;;
16824;SDS011;8529;48.108;-1.706;2022-12-18T04:40:59;28.43;;;13.53;;
16824;SDS011;8529;48.108;-1.706;2022-12-18T04:43:26;27.30;;;12.97;;
16824;SDS011;8529;48.108;-1.706;2022-12-18T04:45:53;24.80;;;12.37;;
16824;SDS011;8529;48.108;-1.706;2022-12-18T04:48:20;24.90;;;12.53;;
16824;SDS011;8529;48.108;-1.706;2022-12-18T04:50:48;26.17;;;12.57;;
16824;SDS011;8529;48.108;-1.706;2022-12-18T04:53:15;23.57;;;12.80;;
16824;SDS011;8529;48.108;-1.706;2022-12-18T04:55:42;24.90;;;13.07;;
16824;SDS011;8529;48.108;-1.706;2022-12-18T04:58:09;26.43;;;13.53;;
16824;SDS011;8529;48.108;-1.706;2022-12-18T05:00:36;26.37;;;13.07;;
16824;SDS011;8529;48.108;-1.706;2022-12-18T05:03:03;25.37;;;12.47;;
16824;SDS011;8529;48.108;-1.706;2022-12-18T05:05:30;27.53;;;12.40;;
16824;SDS011;8529;48.108;-1.706;2022-12-18T05:07:58;24.00;;;11.57;;
16824;SDS011;8529;48.108;-1.706;2022-12-18T05:10:25;33.33;;;14.57;;
16824;SDS011;8529;48.108;-1.706;2022-12-18T05:12:52;24.73;;;13.17;;
16824;SDS011;8529;48.108;-1.706;2022-12-18T05:15:26;22.23;;;11.70;;
16824;SDS011;8529;48.108;-1.706;2022-12-18T05:17:54;24.37;;;12.07;;
16824;SDS011;8529;48.108;-1.706;2022-12-18T05:20:22;27.87;;;12.77;;
16824;SDS011;8529;48.108;-1.706;2022-12-18T05:22:49;25.93;;;12.03;;
16824;SDS011;8529;48.108;-1.706;2022-12-18T05:25:18;27.07;;;13.53;;
16824;SDS011;8529;48.108;-1.706;2022-12-18T05:27:46;27.43;;;12.67;;
16824;SDS011;8529;48.108;-1.706;2022-12-18T05:30:13;25.27;;;12.23;;
16824;SDS011;8529;48.108;-1.706;2022-12-18T05:32:40;26.47;;;13.00;;
16824;SDS011;8529;48.108;-1.706;2022-12-18T05:35:08;24.47;;;12.27;;
16824;SDS011;8529;48.108;-1.706;2022-12-18T05:37:36;26.40;;;12.40;;
16824;SDS011;8529;48.108;-1.706;2022-12-18T05:40:03;26.33;;;13.07;;
16824;SDS011;8529;48.108;-1.706;2022-12-18T05:42:32;25.53;;;13.37;;
16824;SDS011;8529;48.108;-1.706;2022-12-18T05:44:59;22.83;;;11.60;;
16824;SDS011;8529;48.108;-1.706;2022-12-18T05:47:26;27.07;;;12.93;;
16824;SDS011;8529;48.108;-1.706;2022-12-18T05:49:54;25.10;;;11.60;;
16824;SDS011;8529;48.108;-1.706;2022-12-18T05:52:21;24.37;;;12.47;;
16824;SDS011;8529;48.108;-1.706;2022-12-18T05:54:48;24.33;;;12.80;;
16824;SDS011;8529;48.108;-1.706;2022-12-18T05:57:15;25.53;;;12.23;;
16824;SDS011;8529;48.108;-1.706;2022-12-18T05:59:44;23.57;;;13.10;;
16824;SDS011;8529;48.108;-1.706;2022-12-18T06:02:11;24.83;;;12.33;;
16824;SDS011;8529;48.108;-1.706;2022-12-18T06:04:38;28.43;;;11.90;;
16824;SDS011;8529;48.108;-1.706;2022-12-18T06:07:05;27.47;;;12.80;;
16824;SDS011;8529;48.108;-1.706;2022-12-18T06:09:32;28.23;;;13.10;;
16824;SDS011;8529;48.108;-1.706;2022-12-18T06:11:59;25.83;;;12.97;;
16824;SDS011;8529;48.108;-1.706;2022-12-18T06:14:26;27.77;;;11.80;;
16824;SDS011;8529;48.108;-1.706;2022-12-18T06:16:54;23.03;;;11.57;;
16824;SDS011;8529;48.108;-1.706;2022-12-18T06:19:21;24.53;;;12.20;;
16824;SDS011;8529;48.108;-1.706;2022-12-18T06:21:48;24.63;;;12.33;;
16824;SDS011;8529;48.108;-1.706;2022-12-18T06:24:16;24.77;;;12.57;;
16824;SDS011;8529;48.108;-1.706;2022-12-18T06:26:43;24.90;;;12.67;;
16824;SDS011;8529;48.108;-1.706;2022-12-18T06:29:10;29.43;;;13.90;;
16824;SDS011;8529;48.108;-1.706;2022-12-18T06:31:37;21.53;;;12.33;;
16824;SDS011;8529;48.108;-1.706;2022-12-18T06:34:05;26.80;;;13.17;;
16824;SDS011;8529;48.108;-1.706;2022-12-18T06:36:32;24.90;;;12.57;;
16824;SDS011;8529;48.108;-1.706;2022-12-18T06:38:59;23.57;;;11.37;;
16824;SDS011;8529;48.108;-1.706;2022-12-18T06:41:27;24.40;;;12.00;;
16824;SDS011;8529;48.108;-1.706;2022-12-18T06:43:54;23.87;;;12.27;;
16824;SDS011;8529;48.108;-1.706;2022-12-18T06:46:20;23.23;;;11.77;;
16824;SDS011;8529;48.108;-1.706;2022-12-18T06:48:48;25.13;;;12.97;;
16824;SDS011;8529;48.108;-1.706;2022-12-18T06:51:18;25.53;;;12.27;;
16824;SDS011;8529;48.108;-1.706;2022-12-18T06:53:45;24.63;;;12.03;;
16824;SDS011;8529;48.108;-1.706;2022-12-18T06:56:12;21.93;;;12.43;;
16824;SDS011;8529;48.108;-1.706;2022-12-18T06:58:40;24.03;;;13.00;;
16824;SDS011;8529;48.108;-1.706;2022-12-18T07:01:08;28.00;;;13.40;;
16824;SDS011;8529;48.108;-1.706;2022-12-18T07:03:37;28.40;;;12.83;;
16824;SDS011;8529;48.108;-1.706;2022-12-18T07:06:05;28.60;;;13.00;;
16824;SDS011;8529;48.108;-1.706;2022-12-18T07:08:33;27.43;;;13.50;;
16824;SDS011;8529;48.108;-1.706;2022-12-18T07:11:02;26.57;;;13.83;;
16824;SDS011;8529;48.108;-1.706;2022-12-18T07:13:30;29.13;;;14.83;;
16824;SDS011;8529;48.108;-1.706;2022-12-18T07:16:02;28.03;;;13.93;;
16824;SDS011;8529;48.108;-1.706;2022-12-18T07:18:31;23.80;;;12.73;;
16824;SDS011;8529;48.108;-1.706;2022-12-18T07:20:58;25.53;;;12.97;;
16824;SDS011;8529;48.108;-1.706;2022-12-18T07:23:29;25.03;;;12.43;;
16824;SDS011;8529;48.108;-1.706;2022-12-18T07:26:01;24.73;;;12.73;;
16824;SDS011;8529;48.108;-1.706;2022-12-18T07:28:29;27.50;;;12.53;;
16824;SDS011;8529;48.108;-1.706;2022-12-18T07:30:57;28.30;;;13.00;;
16824;SDS011;8529;48.108;-1.706;2022-12-18T07:33:25;23.63;;;12.50;;
16824;SDS011;8529;48.108;-1.706;2022-12-18T07:35:52;28.47;;;13.47;;
16824;SDS011;8529;48.108;-1.706;2022-12-18T07:38:20;29.30;;;14.30;;
16824;SDS011;8529;48.108;-1.706;2022-12-18T07:40:47;26.50;;;14.47;;
16824;SDS011;8529;48.108;-1.706;2022-12-18T07:43:16;23.63;;;12.63;;
16824;SDS011;8529;48.108;-1.706;2022-12-18T07:45:43;30.23;;;14.67;;
16824;SDS011;8529;48.108;-1.706;2022-12-18T07:48:10;31.10;;;12.87;;
16824;SDS011;8529;48.108;-1.706;2022-12-18T07:50:37;25.93;;;13.07;;
16824;SDS011;8529;48.108;-1.706;2022-12-18T07:53:04;26.63;;;13.73;;
16824;SDS011;8529;48.108;-1.706;2022-12-18T07:55:31;26.83;;;12.83;;
16824;SDS011;8529;48.108;-1.706;2022-12-18T07:58:00;28.17;;;14.07;;
16824;SDS011;8529;48.108;-1.706;2022-12-18T08:00:29;31.53;;;15.70;;
16824;SDS011;8529;48.108;-1.706;2022-12-18T08:02:57;27.60;;;14.57;;
16824;SDS011;8529;48.108;-1.706;2022-12-18T08:05:24;28.50;;;14.90;;
16824;SDS011;8529;48.108;-1.706;2022-12-18T08:07:51;26.60;;;13.73;;
16824;SDS011;8529;48.108;-1.706;2022-12-18T08:10:19;30.93;;;15.13;;
16824;SDS011;8529;48.108;-1.706;2022-12-18T08:12:48;27.97;;;14.30;;
16824;SDS011;8529;48.108;-1.706;2022-12-18T08:15:16;30.47;;;15.67;;
16824;SDS011;8529;48.108;-1.706;2022-12-18T08:17:44;28.73;;;15.10;;
16824;SDS011;8529;48.108;-1.706;2022-12-18T08:20:11;28.10;;;13.83;;
16824;SDS011;8529;48.108;-1.706;2022-12-18T08:22:40;30.47;;;14.33;;
16824;SDS011;8529;48.108;-1.706;2022-12-18T08:25:07;31.23;;;15.33;;
16824;SDS011;8529;48.108;-1.706;2022-12-18T08:27:35;32.00;;;15.07;;
16824;SDS011;8529;48.108;-1.706;2022-12-18T08:30:02;28.50;;;14.23;;
16824;SDS011;8529;48.108;-1.706;2022-12-18T08:32:30;28.77;;;13.47;;
16824;SDS011;8529;48.108;-1.706;2022-12-18T08:34:59;33.70;;;14.73;;
16824;SDS011;8529;48.108;-1.706;2022-12-18T08:37:26;34.70;;;15.30;;
16824;SDS011;8529;48.108;-1.706;2022-12-18T08:39:53;28.50;;;15.30;;
16824;SDS011;8529;48.108;-1.706;2022-12-18T08:42:20;29.67;;;15.20;;
16824;SDS011;8529;48.108;-1.706;2022-12-18T08:45:05;27.73;;;14.77;;
16824;SDS011;8529;48.108;-1.706;2022-12-18T08:47:32;32.63;;;16.00;;
16824;SDS011;8529;48.108;-1.706;2022-12-18T08:50:01;31.67;;;15.53;;
16824;SDS011;8529;48.108;-1.706;2022-12-18T08:52:28;30.97;;;16.33;;
16824;SDS011;8529;48.108;-1.706;2022-12-18T08:54:57;30.13;;;15.67;;
16824;SDS011;8529;48.108;-1.706;2022-12-18T08:57:24;34.27;;;15.37;;
16824;SDS011;8529;48.108;-1.706;2022-12-18T08:59:51;34.27;;;15.73;;
16824;SDS011;8529;48.108;-1.706;2022-12-18T09:02:18;32.93;;;16.40;;
16824;SDS011;8529;48.108;-1.706;2022-12-18T09:04:46;32.57;;;16.13;;
16824;SDS011;8529;48.108;-1.706;2022-12-18T09:07:14;32.80;;;16.50;;
16824;SDS011;8529;48.108;-1.706;2022-12-18T09:09:42;35.13;;;16.67;;
16824;SDS011;8529;48.108;-1.706;2022-12-18T09:12:09;35.63;;;16.93;;
16824;SDS011;8529;48.108;-1.706;2022-12-18T09:14:35;33.90;;;16.00;;
16824;SDS011;8529;48.108;-1.706;2022-12-18T09:17:02;39.77;;;17.70;;
16824;SDS011;8529;48.108;-1.706;2022-12-18T09:19:30;34.77;;;15.77;;
16824;SDS011;8529;48.108;-1.706;2022-12-18T09:21:57;38.67;;;16.47;;
16824;SDS011;8529;48.108;-1.706;2022-12-18T09:24:25;35.00;;;16.83;;
16824;SDS011;8529;48.108;-1.706;2022-12-18T09:26:52;34.83;;;17.30;;
16824;SDS011;8529;48.108;-1.706;2022-12-18T09:29:20;36.00;;;17.73;;
16824;SDS011;8529;48.108;-1.706;2022-12-18T09:31:47;38.60;;;17.17;;
16824;SDS011;8529;48.108;-1.706;2022-12-18T09:34:15;35.10;;;16.90;;
16824;SDS011;8529;48.108;-1.706;2022-12-18T09:36:42;34.13;;;17.17;;
16824;SDS011;8529;48.108;-1.706;2022-12-18T09:39:09;32.13;;;16.03;;
16824;SDS011;8529;48.108;-1.706;2022-12-18T09:41:42;31.83;;;16.57;;
16824;SDS011;8529;48.108;-1.706;2022-12-18T09:44:19;38.30;;;16.37;;
16824;SDS011;8529;48.108;-1.706;2022-12-18T09:46:51;38.43;;;18.40;;
16824;SDS011;8529;48.108;-1.706;2022-12-18T09:49:24;35.23;;;17.20;;
16824;SDS011;8529;48.108;-1.706;2022-12-18T09:51:55;34.57;;;16.50;;
16824;SDS011;8529;48.108;-1.706;2022-12-18T09:54:29;34.67;;;17.17;;
16824;SDS011;8529;48.108;-1.706;2022-12-18T09:57:02;38.00;;;18.10;;
16824;SDS011;8529;48.108;-1.706;2022-12-18T09:59:30;34.93;;;17.47;;
16824;SDS011;8529;48.108;-1.706;2022-12-18T10:02:08;39.77;;;18.07;;
16824;SDS011;8529;48.108;-1.706;2022-12-18T10:04:43;40.67;;;18.20;;
16824;SDS011;8529;48.108;-1.706;2022-12-18T10:07:15;38.80;;;18.33;;
16824;SDS011;8529;48.108;-1.706;2022-12-18T10:09:51;37.87;;;18.37;;
16824;SDS011;8529;48.108;-1.706;2022-12-18T10:12:30;37.60;;;17.17;;
16824;SDS011;8529;48.108;-1.706;2022-12-18T10:15:07;42.23;;;19.53;;
16824;SDS011;8529;48.108;-1.706;2022-12-18T10:17:41;45.20;;;19.70;;
16824;SDS011;8529;48.108;-1.706;2022-12-18T10:20:19;40.00;;;19.57;;
16824;SDS011;8529;48.108;-1.706;2022-12-18T10:22:52;37.63;;;17.40;;
16824;SDS011;8529;48.108;-1.706;2022-12-18T10:25:26;38.97;;;19.13;;
16824;SDS011;8529;48.108;-1.706;2022-12-18T10:28:06;43.53;;;19.20;;
16824;SDS011;8529;48.108;-1.706;2022-12-18T10:30:36;38.50;;;19.00;;
16824;SDS011;8529;48.108;-1.706;2022-12-18T10:33:05;41.83;;;18.53;;
16824;SDS011;8529;48.108;-1.706;2022-12-18T10:35:35;38.70;;;19.13;;
16824;SDS011;8529;48.108;-1.706;2022-12-18T10:38:03;37.37;;;18.40;;
16824;SDS011;8529;48.108;-1.706;2022-12-18T10:40:33;43.17;;;19.57;;
16824;SDS011;8529;48.108;-1.706;2022-12-18T10:43:16;39.23;;;17.87;;
16824;SDS011;8529;48.108;-1.706;2022-12-18T10:45:57;42.33;;;19.00;;
16824;SDS011;8529;48.108;-1.706;2022-12-18T10:48:40;44.83;;;18.83;;
16824;SDS011;8529;48.108;-1.706;2022-12-18T10:51:19;46.97;;;19.80;;
16824;SDS011;8529;48.108;-1.706;2022-12-18T10:53:51;46.30;;;19.57;;
16824;SDS011;8529;48.108;-1.706;2022-12-18T10:56:21;42.03;;;19.03;;
16824;SDS011;8529;48.108;-1.706;2022-12-18T10:58:56;40.37;;;19.80;;
16824;SDS011;8529;48.108;-1.706;2022-12-18T11:01:25;38.63;;;18.37;;
16824;SDS011;8529;48.108;-1.706;2022-12-18T11:04:00;44.47;;;19.93;;
16824;SDS011;8529;48.108;-1.706;2022-12-18T11:06:29;44.40;;;19.83;;
16824;SDS011;8529;48.108;-1.706;2022-12-18T11:08:59;40.10;;;19.93;;
16824;SDS011;8529;48.108;-1.706;2022-12-18T11:11:28;40.50;;;19.10;;
16824;SDS011;8529;48.108;-1.706;2022-12-18T11:13:59;39.80;;;19.87;;
16824;SDS011;8529;48.108;-1.706;2022-12-18T11:16:30;43.73;;;19.97;;
16824;SDS011;8529;48.108;-1.706;2022-12-18T11:19:12;42.87;;;18.87;;
16824;SDS011;8529;48.108;-1.706;2022-12-18T11:21:47;45.17;;;19.33;;
16824;SDS011;8529;48.108;-1.706;2022-12-18T11:24:18;40.40;;;19.27;;
16824;SDS011;8529;48.108;-1.706;2022-12-18T11:26:48;42.97;;;20.17;;
16824;SDS011;8529;48.108;-1.706;2022-12-18T11:29:18;41.07;;;19.80;;
16824;SDS011;8529;48.108;-1.706;2022-12-18T11:31:50;41.77;;;19.30;;
16824;SDS011;8529;48.108;-1.706;2022-12-18T11:34:19;43.73;;;19.63;;
16824;SDS011;8529;48.108;-1.706;2022-12-18T11:36:52;43.50;;;20.17;;
16824;SDS011;8529;48.108;-1.706;2022-12-18T11:39:21;42.33;;;20.13;;
16824;SDS011;8529;48.108;-1.706;2022-12-18T11:41:58;41.37;;;20.20;;
16824;SDS011;8529;48.108;-1.706;2022-12-18T11:44:40;41.17;;;19.07;;
16824;SDS011;8529;48.108;-1.706;2022-12-18T11:47:14;41.90;;;19.57;;
16824;SDS011;8529;48.108;-1.706;2022-12-18T11:49:49;42.87;;;19.47;;
16824;SDS011;8529;48.108;-1.706;2022-12-18T11:52:16;42.57;;;20.20;;
16824;SDS011;8529;48.108;-1.706;2022-12-18T11:54:46;42.83;;;19.37;;
16824;SDS011;8529;48.108;-1.706;2022-12-18T11:57:18;43.83;;;19.60;;
16824;SDS011;8529;48.108;-1.706;2022-12-18T11:59:59;40.73;;;18.97;;
16824;SDS011;8529;48.108;-1.706;2022-12-18T12:02:42;42.87;;;19.00;;
16824;SDS011;8529;48.108;-1.706;2022-12-18T12:05:36;35.17;;;17.50;;
16824;SDS011;8529;48.108;-1.706;2022-12-18T12:08:15;34.47;;;17.20;;
16824;SDS011;8529;48.108;-1.706;2022-12-18T12:10:52;37.63;;;19.27;;
16824;SDS011;8529;48.108;-1.706;2022-12-18T12:13:32;40.90;;;19.13;;
16824;SDS011;8529;48.108;-1.706;2022-12-18T12:16:10;38.13;;;19.77;;
16824;SDS011;8529;48.108;-1.706;2022-12-18T12:18:50;36.70;;;19.27;;
16824;SDS011;8529;48.108;-1.706;2022-12-18T12:21:38;45.33;;;20.00;;
16824;SDS011;8529;48.108;-1.706;2022-12-18T12:24:13;39.27;;;19.33;;
16824;SDS011;8529;48.108;-1.706;2022-12-18T12:26:53;39.27;;;20.27;;
16824;SDS011;8529;48.108;-1.706;2022-12-18T12:29:33;42.97;;;20.73;;
16824;SDS011;8529;48.108;-1.706;2022-12-18T12:32:16;50.33;;;21.40;;
16824;SDS011;8529;48.108;-1.706;2022-12-18T12:34:59;42.63;;;20.27;;
16824;SDS011;8529;48.108;-1.706;2022-12-18T12:37:42;48.70;;;25.93;;
16824;SDS011;8529;48.108;-1.706;2022-12-18T12:40:18;45.47;;;21.60;;
16824;SDS011;8529;48.108;-1.706;2022-12-18T12:42:47;40.70;;;19.93;;
16824;SDS011;8529;48.108;-1.706;2022-12-18T12:45:40;47.30;;;21.63;;
16824;SDS011;8529;48.108;-1.706;2022-12-18T12:48:16;55.93;;;22.83;;
16824;SDS011;8529;48.108;-1.706;2022-12-18T12:50:49;55.90;;;22.43;;
16824;SDS011;8529;48.108;-1.706;2022-12-18T12:53:21;49.93;;;21.47;;
16824;SDS011;8529;48.108;-1.706;2022-12-18T12:55:52;47.10;;;22.00;;
16824;SDS011;8529;48.108;-1.706;2022-12-18T12:58:23;48.10;;;22.80;;
16824;SDS011;8529;48.108;-1.706;2022-12-18T13:01:02;51.00;;;25.50;;
16824;SDS011;8529;48.108;-1.706;2022-12-18T13:03:41;50.00;;;22.47;;
16824;SDS011;8529;48.108;-1.706;2022-12-18T13:06:14;50.53;;;23.47;;
16824;SDS011;8529;48.108;-1.706;2022-12-18T13:08:53;46.00;;;22.73;;
16824;SDS011;8529;48.108;-1.706;2022-12-18T13:11:29;48.77;;;23.80;;
16824;SDS011;8529;48.108;-1.706;2022-12-18T13:14:29;46.30;;;23.20;;
16824;SDS011;8529;48.108;-1.706;2022-12-18T13:20:03;57.97;;;26.63;;
16824;SDS011;8529;48.108;-1.706;2022-12-18T13:22:34;47.83;;;23.17;;
16824;SDS011;8529;48.108;-1.706;2022-12-18T13:25:04;43.50;;;21.10;;
16824;SDS011;8529;48.108;-1.706;2022-12-18T13:28:02;45.57;;;22.87;;
16824;SDS011;8529;48.108;-1.706;2022-12-18T13:30:42;53.10;;;24.10;;
16824;SDS011;8529;48.108;-1.706;2022-12-18T13:33:36;48.27;;;21.77;;
16824;SDS011;8529;48.108;-1.706;2022-12-18T13:36:16;46.83;;;23.03;;
16824;SDS011;8529;48.108;-1.706;2022-12-18T13:41:47;43.40;;;23.17;;
16824;SDS011;8529;48.108;-1.706;2022-12-18T13:44:22;44.00;;;22.77;;
16824;SDS011;8529;48.108;-1.706;2022-12-18T13:46:52;45.60;;;21.73;;
16824;SDS011;8529;48.108;-1.706;2022-12-18T13:49:21;46.17;;;21.90;;
16824;SDS011;8529;48.108;-1.706;2022-12-18T13:51:52;42.30;;;21.73;;
16824;SDS011;8529;48.108;-1.706;2022-12-18T13:54:23;45.60;;;22.93;;
16824;SDS011;8529;48.108;-1.706;2022-12-18T13:56:55;43.33;;;22.37;;
16824;SDS011;8529;48.108;-1.706;2022-12-18T13:59:22;44.30;;;21.20;;
16824;SDS011;8529;48.108;-1.706;2022-12-18T14:01:52;45.27;;;22.47;;
16824;SDS011;8529;48.108;-1.706;2022-12-18T14:04:22;48.73;;;22.83;;
16824;SDS011;8529;48.108;-1.706;2022-12-18T14:06:55;44.17;;;21.10;;
16824;SDS011;8529;48.108;-1.706;2022-12-18T14:09:26;50.90;;;24.10;;
16824;SDS011;8529;48.108;-1.706;2022-12-18T14:11:56;48.73;;;24.97;;
16824;SDS011;8529;48.108;-1.706;2022-12-18T14:14:40;50.43;;;23.70;;
16824;SDS011;8529;48.108;-1.706;2022-12-18T14:17:09;47.37;;;24.17;;
16824;SDS011;8529;48.108;-1.706;2022-12-18T14:19:40;46.40;;;22.17;;
16824;SDS011;8529;48.108;-1.706;2022-12-18T14:22:13;48.60;;;22.23;;
16824;SDS011;8529;48.108;-1.706;2022-12-18T14:24:42;45.00;;;24.00;;
16824;SDS011;8529;48.108;-1.706;2022-12-18T14:27:17;42.43;;;20.97;;
16824;SDS011;8529;48.108;-1.706;2022-12-18T14:29:47;45.53;;;21.67;;
16824;SDS011;8529;48.108;-1.706;2022-12-18T14:32:15;45.27;;;22.07;;
16824;SDS011;8529;48.108;-1.706;2022-12-18T14:34:44;41.50;;;22.03;;
16824;SDS011;8529;48.108;-1.706;2022-12-18T14:37:14;45.20;;;21.97;;
16824;SDS011;8529;48.108;-1.706;2022-12-18T14:42:29;44.13;;;23.00;;
16824;SDS011;8529;48.108;-1.706;2022-12-18T14:48:05;50.57;;;23.17;;
16824;SDS011;8529;48.108;-1.706;2022-12-18T14:50:33;46.50;;;22.60;;
16824;SDS011;8529;48.108;-1.706;2022-12-18T14:53:02;51.83;;;23.27;;